createdAt,value
2022-09-26T00:01:07.699Z,4.45
2022-09-26T00:06:04.878Z,3.90
2022-09-26T00:08:31.664Z,4.10
2022-09-26T00:13:28.633Z,3.55
2022-09-26T00:15:56.167Z,4.22
2022-09-26T00:18:23.231Z,4.95
2022-09-26T00:20:49.863Z,2.58
2022-09-26T00:23:16.715Z,2.65
2022-09-26T00:25:51.484Z,3.15
2022-09-26T00:28:18.920Z,3.05
2022-09-26T00:30:45.895Z,3.33
2022-09-26T00:35:38.200Z,2.28
2022-09-26T00:38:05.421Z,3.63
2022-09-26T00:45:24.895Z,6.20
2022-09-26T00:47:59.745Z,3.13
2022-09-26T00:50:30.574Z,7.22
2022-09-26T00:53:02.798Z,2.63
2022-09-26T00:55:31.533Z,3.05
2022-09-26T01:00:30.361Z,1.30
2022-09-26T01:02:57.558Z,2.90
2022-09-26T01:05:24.278Z,2.03
2022-09-26T01:07:52.030Z,4.97
2022-09-26T01:16:05.871Z,4.00
2022-09-26T01:18:32.588Z,2.85
2022-09-26T01:21:18.078Z,1.35
2022-09-26T01:23:53.938Z,4.30
2022-09-26T01:28:55.430Z,2.50
2022-09-26T01:31:22.135Z,5.40
2022-09-26T01:36:41.119Z,5.93
2022-09-26T01:39:10.564Z,2.50
2022-09-26T01:41:55.890Z,4.57
2022-09-26T01:44:41.087Z,2.85
2022-09-26T01:47:08.115Z,4.57
2022-09-26T01:49:34.682Z,3.45
2022-09-26T01:52:04.137Z,1.92
2022-09-26T01:54:39.270Z,2.55
2022-09-26T01:57:08.327Z,2.00
2022-09-26T01:59:39.524Z,6.43
2022-09-26T02:02:09.957Z,3.67
2022-09-26T02:04:38.878Z,3.22
2022-09-26T02:07:25.048Z,3.22
2022-09-26T02:09:53.497Z,6.43
2022-09-26T02:12:23.767Z,4.55
2022-09-26T02:19:52.018Z,3.80
2022-09-26T02:22:19.163Z,2.67
2022-09-26T02:24:45.918Z,3.97
2022-09-26T02:27:12.559Z,4.80
2022-09-26T02:29:40.514Z,3.45
2022-09-26T02:32:16.124Z,3.22
2022-09-26T02:34:44.958Z,4.18
2022-09-26T02:37:13.461Z,5.22
2022-09-26T02:39:40.920Z,3.88
2022-09-26T02:42:11.065Z,4.95
2022-09-26T02:44:40.836Z,3.97
2022-09-26T02:47:16.280Z,4.13
2022-09-26T02:49:55.032Z,4.63
2022-09-26T02:52:39.966Z,2.15
2022-09-26T02:55:19.795Z,3.97
2022-09-26T02:58:06.620Z,2.90
2022-09-26T03:00:45.619Z,7.93
2022-09-26T03:03:23.511Z,2.92
2022-09-26T03:05:52.145Z,3.05
2022-09-26T03:08:24.557Z,6.85
2022-09-26T03:10:52.143Z,8.73
2022-09-26T03:13:19.241Z,2.90
2022-09-26T03:15:49.120Z,3.97
2022-09-26T03:20:44.996Z,2.22
2022-09-26T03:23:11.981Z,3.92
2022-09-26T03:25:38.871Z,4.97
2022-09-26T03:28:10.563Z,4.47
2022-09-26T03:30:37.299Z,4.25
2022-09-26T03:33:03.968Z,5.38
2022-09-26T03:35:40.182Z,6.55
2022-09-26T03:38:10.111Z,2.42
2022-09-26T03:40:42.230Z,4.50
2022-09-26T03:45:37.893Z,3.90
2022-09-26T03:48:17.410Z,2.42
2022-09-26T03:50:44.075Z,6.25
2022-09-26T03:53:10.678Z,4.88
2022-09-26T03:55:37.279Z,6.78
2022-09-26T03:58:04.384Z,7.88
2022-09-26T04:00:31.191Z,5.45
2022-09-26T04:05:27.006Z,4.50
2022-09-26T04:07:57.361Z,6.05
2022-09-26T04:10:24.255Z,6.30
2022-09-26T04:12:51.082Z,9.75
2022-09-26T04:15:17.969Z,9.18
2022-09-26T04:17:44.580Z,7.25
2022-09-26T04:22:37.682Z,4.40
2022-09-26T04:25:04.899Z,7.40
2022-09-26T04:34:51.335Z,7.47
2022-09-26T04:37:21.227Z,9.90
2022-09-26T04:39:49.438Z,7.07
2022-09-26T04:44:42.559Z,9.23
2022-09-26T04:47:09.678Z,6.75
2022-09-26T04:50:02.501Z,5.15
2022-09-26T04:52:30.726Z,6.55
2022-09-26T04:54:57.828Z,7.30
2022-09-26T04:57:24.683Z,6.38
2022-09-26T04:59:52.412Z,5.22
2022-09-26T05:02:20.855Z,7.50
2022-09-26T05:04:48.568Z,6.43
2022-09-26T05:07:18.616Z,7.47
2022-09-26T05:09:45.596Z,5.60
2022-09-26T05:12:13.598Z,8.18
2022-09-26T05:14:46.195Z,7.20
2022-09-26T05:19:43.354Z,6.55
2022-09-26T05:22:22.437Z,5.75
2022-09-26T05:27:33.262Z,5.70
2022-09-26T05:30:00.057Z,11.43
2022-09-26T05:34:56.209Z,7.97
2022-09-26T05:37:24.972Z,5.47
2022-09-26T05:40:10.730Z,7.95
2022-09-26T05:42:41.910Z,5.07
2022-09-26T05:45:09.417Z,14.30
2022-09-26T05:50:10.032Z,6.60
2022-09-26T05:55:05.364Z,5.32
2022-09-26T05:57:52.924Z,7.95
2022-09-26T06:02:45.349Z,5.55
2022-09-26T06:05:17.043Z,9.45
2022-09-26T06:10:09.220Z,11.93
2022-09-26T06:15:19.683Z,4.53
2022-09-26T06:17:48.245Z,4.70
2022-09-26T06:25:07.149Z,9.00
2022-09-26T06:30:06.635Z,6.40
2022-09-26T06:32:35.094Z,5.13
2022-09-26T06:37:50.082Z,6.65
2022-09-26T06:40:17.696Z,4.47
2022-09-26T06:45:12.701Z,4.85
2022-09-26T06:48:01.528Z,8.65
2022-09-26T06:50:39.815Z,8.38
2022-09-26T07:02:53.822Z,4.45
2022-09-26T07:05:43.961Z,6.57
2022-09-26T07:08:11.484Z,7.10
2022-09-26T07:10:38.611Z,5.25
2022-09-26T07:18:02.590Z,6.95
2022-09-26T07:20:47.970Z,4.47
2022-09-26T07:23:33.363Z,4.82
2022-09-26T07:31:06.486Z,10.38
2022-09-26T07:33:43.308Z,5.13
2022-09-26T07:36:11.832Z,4.75
2022-09-26T07:38:39.351Z,6.63
2022-09-26T07:41:06.220Z,4.97
2022-09-26T07:44:26.776Z,4.45
2022-09-26T07:49:23.934Z,6.72
2022-09-26T07:51:54.481Z,2.78
2022-09-26T07:56:48.893Z,1.80
2022-09-26T07:59:35.847Z,5.47
2022-09-26T08:02:03.112Z,6.07
2022-09-26T08:04:29.920Z,6.03
2022-09-26T08:06:57.258Z,8.48
2022-09-26T08:11:49.675Z,2.80
2022-09-26T08:14:33.855Z,5.88
2022-09-26T08:17:00.441Z,5.28
2022-09-26T08:19:27.755Z,3.08
2022-09-26T08:21:54.513Z,6.47
2022-09-26T08:26:46.633Z,7.90
2022-09-26T08:29:18.190Z,4.10
2022-09-26T08:31:46.299Z,6.07
2022-09-26T08:34:13.144Z,5.30
2022-09-26T08:36:40.549Z,5.05
2022-09-26T08:39:07.275Z,5.20
2022-09-26T08:41:44.386Z,2.10
2022-09-26T08:45:28.409Z,6.00
2022-09-26T08:48:13.798Z,2.70
2022-09-26T08:50:56.955Z,4.80
2022-09-26T08:53:28.514Z,4.55
2022-09-26T08:55:58.438Z,5.03
2022-09-26T08:58:29.087Z,2.92
2022-09-26T09:00:59.120Z,4.05
2022-09-26T09:03:33.910Z,4.38
2022-09-26T09:06:11.391Z,1.92
2022-09-26T09:08:44.578Z,2.00
2022-09-26T09:19:38.443Z,1.25
2022-09-26T09:22:16.628Z,1.48
2022-09-26T09:25:03.348Z,4.13
2022-09-26T09:27:53.171Z,3.72
2022-09-26T09:30:32.680Z,1.05
2022-09-26T09:39:06.186Z,1.30
2022-09-26T09:41:38.952Z,0.90
2022-09-26T09:44:09.955Z,0.80
2022-09-26T09:46:42.669Z,0.90
2022-09-26T09:51:41.112Z,1.73
2022-09-26T09:59:14.998Z,0.73
2022-09-26T10:02:11.811Z,0.85
2022-09-26T10:04:44.385Z,1.02
2022-09-26T10:07:10.943Z,0.73
2022-09-26T10:12:17.192Z,1.48
2022-09-26T10:15:05.259Z,1.10
2022-09-26T10:18:22.833Z,1.02
2022-09-26T10:21:16.467Z,0.85
2022-09-26T10:23:46.867Z,0.60
2022-09-26T10:26:16.658Z,0.85
2022-09-26T10:28:45.311Z,0.98
2022-09-26T10:31:21.369Z,0.57
2022-09-26T10:34:08.319Z,0.85
2022-09-26T10:36:36.760Z,1.10
2022-09-26T10:39:36.395Z,0.68
2022-09-26T10:42:04.259Z,1.95
2022-09-26T10:44:34.172Z,0.50
2022-09-26T10:47:08.435Z,3.40
2022-09-26T10:49:56.588Z,3.95
2022-09-26T10:52:28.618Z,1.58
2022-09-26T10:54:59.094Z,3.13
2022-09-26T10:57:28.278Z,5.10
2022-09-26T11:10:13.979Z,7.88
2022-09-26T11:12:58.100Z,6.32
2022-09-26T11:15:24.996Z,3.05
2022-09-26T11:17:52.859Z,6.95
2022-09-26T11:20:22.494Z,3.97
2022-09-26T11:22:56.065Z,2.95
2022-09-26T11:25:27.858Z,5.57
2022-09-26T11:32:56.453Z,7.32
2022-09-26T11:38:24.030Z,6.73
2022-09-26T11:40:54.166Z,7.10
2022-09-26T11:43:35.911Z,6.05
2022-09-26T11:49:04.511Z,8.75
2022-09-26T11:52:02.416Z,7.95
2022-09-26T11:54:47.396Z,9.18
2022-09-26T11:57:34.311Z,10.30
2022-09-26T12:02:47.442Z,10.00
2022-09-26T12:05:27.313Z,13.52
2022-09-26T12:08:06.240Z,8.60
2022-09-26T12:10:32.813Z,13.30
2022-09-26T12:13:12.704Z,11.23
2022-09-26T12:15:44.838Z,12.02
2022-09-26T12:18:15.805Z,16.05
2022-09-26T12:21:01.018Z,11.32
2022-09-26T12:23:33.860Z,15.60
2022-09-26T12:28:49.177Z,13.40
2022-09-26T12:31:34.691Z,12.25
2022-09-26T12:34:02.468Z,14.45
2022-09-26T12:36:40.407Z,17.38
2022-09-26T12:42:06.383Z,23.15
2022-09-26T12:44:45.459Z,17.58
2022-09-26T12:47:18.348Z,15.73
2022-09-26T12:52:27.420Z,17.52
2022-09-26T12:55:17.596Z,13.35
2022-09-26T12:57:48.338Z,14.45
2022-09-26T13:03:07.912Z,11.98
2022-09-26T13:05:55.669Z,16.90
2022-09-26T13:08:31.948Z,17.23
2022-09-26T13:13:24.856Z,14.85
2022-09-26T13:15:55.223Z,13.15
2022-09-26T13:18:29.004Z,15.43
2022-09-26T13:21:01.501Z,12.98
2022-09-26T13:31:12.649Z,15.23
2022-09-26T13:34:01.339Z,14.43
2022-09-26T13:39:06.314Z,21.17
2022-09-26T13:41:48.611Z,13.57
2022-09-26T13:44:15.375Z,16.60
2022-09-26T13:46:53.970Z,20.67
2022-09-26T13:49:20.565Z,20.23
2022-09-26T13:51:50.943Z,18.20
2022-09-26T14:02:05.745Z,18.92
2022-09-26T14:12:49.824Z,18.23
2022-09-26T14:15:24.276Z,20.90
2022-09-26T14:17:50.909Z,17.63
2022-09-26T14:20:27.622Z,21.75
2022-09-26T14:22:54.918Z,24.50
2022-09-26T14:25:40.236Z,18.92
2022-09-26T14:28:19.927Z,15.90
2022-09-26T14:31:05.118Z,16.42
2022-09-26T14:38:41.402Z,18.13
2022-09-26T14:41:16.747Z,18.48
2022-09-26T14:43:43.614Z,15.80
2022-09-26T14:46:18.573Z,15.32
2022-09-26T14:51:11.431Z,21.67
2022-09-26T14:53:40.723Z,21.88
2022-09-26T14:59:16.084Z,18.92
2022-09-26T15:01:44.090Z,24.48
2022-09-26T15:04:16.357Z,22.83
2022-09-26T15:06:44.079Z,19.17
2022-09-26T15:09:11.940Z,22.42
2022-09-26T15:11:46.314Z,19.23
2022-09-26T15:14:33.184Z,27.90
2022-09-26T15:19:35.387Z,17.40
2022-09-26T15:27:12.113Z,23.50
2022-09-26T15:29:48.851Z,19.85
2022-09-26T15:32:19.463Z,29.60
2022-09-26T15:34:47.041Z,25.83
2022-09-26T15:37:22.084Z,22.08
2022-09-26T15:39:49.089Z,28.58
2022-09-26T15:45:00.797Z,22.50
2022-09-26T15:50:10.328Z,24.20
2022-09-26T15:52:46.576Z,23.13
2022-09-26T16:00:13.299Z,24.25
2022-09-26T16:05:10.746Z,22.85
2022-09-26T16:07:41.359Z,22.02
2022-09-26T16:15:17.856Z,22.90
2022-09-26T16:17:51.506Z,24.00
2022-09-26T16:20:18.135Z,23.38
2022-09-26T16:22:45.648Z,19.48
2022-09-26T16:25:15.404Z,22.15
2022-09-26T16:30:30.772Z,25.48
2022-09-26T16:33:06.951Z,20.13
2022-09-26T16:35:35.415Z,22.55
2022-09-26T16:38:20.540Z,18.45
2022-09-26T16:40:54.453Z,18.27
2022-09-26T16:43:29.423Z,17.55
2022-09-26T16:46:09.317Z,16.63
2022-09-26T16:48:51.029Z,21.02
2022-09-26T16:51:21.317Z,23.58
2022-09-26T16:53:54.044Z,18.23
2022-09-26T16:58:50.049Z,21.60
2022-09-26T17:01:35.871Z,21.85
2022-09-26T17:04:02.799Z,19.77
2022-09-26T17:06:30.951Z,18.27
2022-09-26T17:13:53.739Z,20.33
2022-09-26T17:16:20.743Z,25.27
2022-09-26T17:18:47.842Z,23.38
2022-09-26T17:21:14.817Z,25.02
2022-09-26T17:26:08.774Z,20.80
2022-09-26T17:28:39.422Z,22.50
2022-09-26T17:31:07.918Z,19.75
2022-09-26T17:33:40.735Z,21.25
2022-09-26T17:36:11.137Z,31.60
2022-09-26T17:38:40.455Z,30.13
2022-09-26T17:41:07.453Z,32.95
2022-09-26T17:46:01.369Z,28.85
2022-09-26T17:48:29.271Z,31.00
2022-09-26T17:50:56.278Z,34.50
2022-09-26T17:58:15.584Z,23.98
2022-09-26T18:05:56.115Z,20.33
2022-09-26T18:08:28.297Z,22.77
2022-09-26T18:13:26.404Z,26.83
2022-09-26T18:15:54.202Z,32.83
2022-09-26T18:20:49.162Z,33.85
2022-09-26T18:25:53.353Z,25.00
2022-09-26T18:28:21.275Z,22.67
2022-09-26T18:35:59.491Z,17.55
2022-09-26T18:38:31.413Z,15.98
2022-09-26T18:45:54.000Z,19.00
2022-09-26T19:01:16.154Z,11.07
2022-09-26T19:03:46.143Z,17.27
2022-09-26T19:06:21.046Z,18.50
2022-09-26T19:08:53.291Z,16.23
2022-09-26T19:18:42.596Z,19.73
2022-09-26T19:21:36.499Z,24.98
2022-09-26T19:24:10.270Z,16.90
2022-09-26T19:27:06.689Z,21.75
2022-09-26T19:29:43.699Z,18.15
2022-09-26T19:35:23.676Z,16.38
2022-09-26T19:37:50.812Z,17.25
2022-09-26T19:40:18.922Z,13.10
2022-09-26T19:45:12.717Z,11.88
2022-09-26T19:47:43.040Z,18.67
2022-09-26T19:52:40.786Z,20.52
2022-09-26T19:55:17.435Z,16.40
2022-09-26T19:57:44.134Z,20.52
2022-09-26T20:00:12.455Z,19.38
2022-09-26T20:02:39.368Z,14.98
2022-09-26T20:05:32.531Z,12.90
2022-09-26T20:07:59.113Z,19.92
2022-09-26T20:10:25.859Z,13.82
2022-09-26T20:12:52.662Z,13.82
2022-09-26T20:17:48.414Z,11.68
2022-09-26T20:20:20.056Z,18.83
2022-09-26T20:27:42.436Z,10.35
2022-09-26T20:40:18.774Z,10.25
2022-09-26T20:42:47.429Z,9.13
2022-09-26T20:47:45.146Z,10.13
2022-09-26T20:50:16.315Z,8.40
2022-09-26T20:52:43.011Z,6.93
2022-09-26T20:55:14.619Z,7.80
2022-09-26T20:57:41.971Z,10.05
2022-09-26T21:02:39.813Z,10.70
2022-09-26T21:05:14.331Z,9.73
2022-09-26T21:10:26.029Z,12.27
2022-09-26T21:17:45.463Z,11.95
2022-09-26T21:20:20.486Z,9.35
2022-09-26T21:23:03.566Z,8.93
2022-09-26T21:30:33.646Z,8.23
2022-09-26T21:33:00.501Z,10.15
2022-09-26T21:35:28.897Z,11.75
2022-09-26T21:37:56.587Z,9.90
2022-09-26T21:40:26.219Z,12.18
2022-09-26T21:42:54.769Z,11.95
2022-09-26T21:45:27.090Z,16.50
2022-09-26T21:47:55.355Z,6.05
2022-09-26T21:50:23.155Z,13.38
2022-09-26T21:52:51.268Z,13.02
2022-09-26T21:55:21.045Z,8.10
2022-09-26T21:57:49.160Z,10.25
2022-09-26T22:00:15.962Z,12.15
2022-09-26T22:07:53.320Z,8.68
2022-09-26T22:10:20.023Z,16.88
2022-09-26T22:12:47.034Z,12.52
2022-09-26T22:15:13.644Z,12.52
2022-09-26T22:17:40.259Z,18.75
2022-09-26T22:20:07.076Z,13.68
2022-09-26T22:22:33.678Z,9.95
2022-09-26T22:27:29.615Z,10.25
2022-09-26T22:29:56.430Z,14.85
2022-09-26T22:37:15.152Z,7.65
2022-09-26T22:39:41.887Z,11.27
2022-09-26T22:44:34.325Z,8.15
2022-09-26T22:47:00.948Z,10.50
2022-09-26T22:49:27.538Z,14.63
2022-09-26T22:51:54.244Z,11.40
2022-09-26T22:54:20.882Z,12.65
2022-09-26T22:59:12.900Z,16.70
2022-09-26T23:01:39.697Z,12.40
2022-09-26T23:04:06.395Z,13.85
2022-09-26T23:06:33.078Z,13.40
2022-09-26T23:08:59.739Z,12.18
2022-09-26T23:13:52.738Z,12.98
2022-09-26T23:16:20.799Z,10.43
2022-09-26T23:18:47.950Z,16.58
2022-09-26T23:21:16.162Z,11.38
2022-09-26T23:23:44.410Z,14.10
2022-09-26T23:28:41.473Z,9.43
2022-09-26T23:31:09.637Z,14.20
2022-09-26T23:33:38.062Z,15.65
2022-09-26T23:36:05.418Z,14.45
2022-09-26T23:38:32.500Z,12.25
2022-09-26T23:40:59.218Z,15.45
2022-09-26T23:43:25.869Z,16.25
2022-09-26T23:45:52.581Z,14.20
2022-09-26T23:48:19.367Z,10.07
2022-09-26T23:50:47.162Z,13.82
2022-09-26T23:53:14.094Z,12.93
